Nearby METAR Reports

 

KSJC - San Jose, California, USA
Distance from station: NO 14km
Uppdaterad: 2019-12-10 06:53
Övervägande molnigt
Övervägande molnigt
 Vind från NNV
Vind: NNV 6 km/h
Temperatur: 13°C
Daggpunkt: 8°C
Luftfuktighet: 72%
Barometer: 1023 hPa
Clouds: Övervägande molnigt
Visibility: 16 km
Cloud details: Few Clouds 305 m
Övervägande molnigt 701 m
2019/12/10 05:53 KSJC 100553Z 34003KT 10SM FEW010 BKN023 13/08 A3021 RMK AO2 SLP230 T01280083 10139 20122 50005
KNUQ - Moffett Nas/Mtn, California, USA
Distance from station: N 14km
Uppdaterad: 2019-11-21 17:56
NOT Current

 
Barometer: 1011.2 hPa
2019/11/21 16:56 KNUQ 211656Z AUTO A2986 RMK AO2 SLP116 PWINO $
 
KPAO - Palo Alto, California, USA
Distance from station: NNV 23km
Uppdaterad: 2019-12-10 05:47
NOT Current
Genommulet
Genommulet
 Vind från NNV
Vind: NNV 11 km/h
Temperatur: 12°C
Daggpunkt: 9°C
Luftfuktighet: 82%
Barometer: 1023.7 hPa
Clouds: Genommulet
Visibility: 16 km
Cloud details: Övervägande molnigt 549 m
Genommulet 1676 m
2019/12/10 04:47 KPAO 100447Z 33006KT 10SM BKN018 OVC055 12/09 A3023 RMK LAST
KRHV - San Jose/Reid, California, USA
Distance from station: ONO 19km
Uppdaterad: 2019-12-10 06:47
Övervägande molnigt
Övervägande molnigt
 Vind från calm
Vind: Vindstilla
Temperatur: 13°C
Daggpunkt: 9°C
Luftfuktighet: 77%
Barometer: 1023.4 hPa
Clouds: Övervägande molnigt
Visibility: 13 km
Cloud details: Övervägande molnigt 610 m
2019/12/10 05:47 KRHV 100547Z 00000KT 8SM BKN020 13/09 A3022 RMK LAST
 
KOAK - Oakland, California, USA
Distance from station: NNV 50km
Uppdaterad: 2019-12-10 06:53
Genommulet
Genommulet
 Vind från calm
Vind: Vindstilla
Temperatur: 13°C
Daggpunkt: 8°C
Luftfuktighet: 72%
Barometer: 1023 hPa
Clouds: Genommulet
Visibility: 16 km
Cloud details: Genommulet 549 m
2019/12/10 05:53 KOAK 100553Z 00000KT 10SM OVC018 13/08 A3021 RMK AO2 SLP230 T01330083 10133 20122 50002
KSQL - San Carlos Airpo, California, USA
Distance from station: NV 34km
Uppdaterad: 2019-12-10 07:15
Genommulet
Genommulet
 Vind från calm
Vind: Vindstilla
Temperatur: 13°C
Daggpunkt: 8°C
Luftfuktighet: 72%
Barometer: 1023.4 hPa
Clouds: Genommulet
Visibility: 16 km
Cloud details: Genommulet 610 m
2019/12/10 06:15 KSQL 100615Z AUTO 00000KT 10SM OVC020 13/08 A3022 RMK AO2
 
KSFO - San Francisco, California, USA
Distance from station: NV 49km
Uppdaterad: 2019-12-10 06:56
Övervägande molnigt
Övervägande molnigt
 Vind från calm
Vind: Vindstilla
Temperatur: 13°C
Daggpunkt: 7°C
Luftfuktighet: 67%
Barometer: 1023 hPa
Clouds: Övervägande molnigt
Visibility: 14 km
Cloud details: Few Clouds 488 m
Övervägande molnigt 640 m
2019/12/10 05:56 KSFO 100556Z 00000KT 9SM FEW016 BKN021 13/07 A3021 RMK AO2 SLP228 T01330072 10133 20117 50001
KE16 - San Martin, California, USA
Distance from station: OSO 43km
Uppdaterad: 2019-11-14 10:35
NOT Current
Genommulet
Genommulet
 Vind från SO
Vind: SO 11 km/h
Temperatur: 12°C
Daggpunkt: 10°C
Luftfuktighet: 88%
Barometer: 1017.6 hPa
Clouds: Genommulet
Visibility: 16 km
Cloud details: Genommulet 427 m
2019/11/14 09:35 KE16 140935Z AUTO 13006KT 10SM OVC014 12/10 A3005 RMK AO2
 
KWVI - Watsonville, California, USA
Distance from station: SSO 44km
Uppdaterad: 2019-12-10 06:53
Klart
Klart
 Vind från NNV
Vind: NNV 6 km/h
Temperatur: 9°C
Daggpunkt: -1°C
Luftfuktighet: 50%
Barometer: 1023 hPa
Clouds: Klart
Visibility: 14 km
2019/12/10 05:53 KWVI 100553Z AUTO 33003KT 9SM CLR 09/M01 A3021 RMK AO2 SLP228 T00941011 10150 20094 50003
KHAF - Half Moon Bay, California, USA
Distance from station: VNV 50km
Uppdaterad: 2019-12-10 07:20
Övervägande molnigt
Övervägande molnigt
 Vind från O
Vind: O 7 km/h
Temperatur: 10°C
Wind Chill: 9°C
Daggpunkt: 8°C
Luftfuktighet: 88%
Barometer: 1023 hPa
Clouds: Övervägande molnigt
Visibility: 16 km
Cloud details: Övervägande molnigt 640 m
2019/12/10 06:20 KHAF 100620Z AUTO 08004KT 10SM BKN021 10/08 A3021 RMK AO2
 
KHWD - Hayward, California, USA
Distance from station: N 44km
Uppdaterad: 2019-12-10 06:54
Genommulet
Genommulet
 Vind från calm
Vind: Vindstilla
Temperatur: 12°C
Daggpunkt: 8°C
Luftfuktighet: 77%
Barometer: 1023 hPa
Clouds: Genommulet
Visibility: 16 km
Cloud details: Genommulet 579 m
2019/12/10 05:54 KHWD 100554Z 00000KT 10SM OVC019 12/08 A3021 RMK AO2 SLP240 T01220078 10139 20117 50004
KLVK - Livermore, California, USA
Distance from station: NNO 51km
Uppdaterad: 2019-12-10 06:53
Genommulet
Genommulet
 Vind från V
Vind: V 9 km/h
Temperatur: 11°C
Daggpunkt: 8°C
Luftfuktighet: 82%
Barometer: 1023 hPa
Clouds: Genommulet
Visibility: 13 km
Cloud details: Genommulet 579 m
2019/12/10 05:53 KLVK 100553Z AUTO 28005KT 8SM OVC019 11/08 A3021 RMK AO2 SLP227 T01110083 10128 20106 50005